sensor_id;sensor_type;location;lat;lon;timestamp;P1;durP1;ratioP1;P2;durP2;ratioP2
31004;SDS011;17676;52.254;4.490;2023-03-12T00:00:39;10.70;;;1.80;;
31004;SDS011;17676;52.254;4.490;2023-03-12T00:03:05;9.10;;;1.70;;
31004;SDS011;17676;52.254;4.490;2023-03-12T00:05:32;4.40;;;1.50;;
31004;SDS011;17676;52.254;4.490;2023-03-12T00:07:58;4.77;;;1.63;;
31004;SDS011;17676;52.254;4.490;2023-03-12T00:10:26;4.80;;;1.90;;
31004;SDS011;17676;52.254;4.490;2023-03-12T00:12:53;6.57;;;1.60;;
31004;SDS011;17676;52.254;4.490;2023-03-12T00:15:19;7.23;;;1.30;;
31004;SDS011;17676;52.254;4.490;2023-03-12T00:17:45;5.20;;;1.67;;
31004;SDS011;17676;52.254;4.490;2023-03-12T00:20:11;5.40;;;1.20;;
31004;SDS011;17676;52.254;4.490;2023-03-12T00:22:36;4.23;;;1.20;;
31004;SDS011;17676;52.254;4.490;2023-03-12T00:25:02;6.10;;;1.50;;
31004;SDS011;17676;52.254;4.490;2023-03-12T00:27:29;5.23;;;1.30;;
31004;SDS011;17676;52.254;4.490;2023-03-12T00:29:55;3.77;;;1.47;;
31004;SDS011;17676;52.254;4.490;2023-03-12T00:32:20;3.80;;;1.40;;
31004;SDS011;17676;52.254;4.490;2023-03-12T00:34:53;4.77;;;1.90;;
31004;SDS011;17676;52.254;4.490;2023-03-12T00:37:19;4.27;;;1.83;;
31004;SDS011;17676;52.254;4.490;2023-03-12T00:39:46;6.57;;;2.03;;
31004;SDS011;17676;52.254;4.490;2023-03-12T00:42:12;6.67;;;2.10;;
31004;SDS011;17676;52.254;4.490;2023-03-12T00:44:38;4.43;;;1.50;;
31004;SDS011;17676;52.254;4.490;2023-03-12T00:47:03;4.10;;;1.70;;
31004;SDS011;17676;52.254;4.490;2023-03-12T00:49:29;6.80;;;2.27;;
31004;SDS011;17676;52.254;4.490;2023-03-12T00:51:54;7.20;;;2.10;;
31004;SDS011;17676;52.254;4.490;2023-03-12T00:54:20;5.33;;;2.17;;
31004;SDS011;17676;52.254;4.490;2023-03-12T00:56:49;3.57;;;2.67;;
31004;SDS011;17676;52.254;4.490;2023-03-12T00:59:15;5.67;;;2.77;;
31004;SDS011;17676;52.254;4.490;2023-03-12T01:01:41;7.57;;;2.87;;
31004;SDS011;17676;52.254;4.490;2023-03-12T01:04:07;3.63;;;2.53;;
31004;SDS011;17676;52.254;4.490;2023-03-12T01:06:32;10.40;;;3.03;;
31004;SDS011;17676;52.254;4.490;2023-03-12T01:08:59;6.70;;;3.43;;
31004;SDS011;17676;52.254;4.490;2023-03-12T01:11:25;6.23;;;3.00;;
31004;SDS011;17676;52.254;4.490;2023-03-12T01:13:51;7.40;;;3.13;;
31004;SDS011;17676;52.254;4.490;2023-03-12T01:16:16;7.40;;;2.97;;
31004;SDS011;17676;52.254;4.490;2023-03-12T01:18:42;6.17;;;3.63;;
31004;SDS011;17676;52.254;4.490;2023-03-12T01:21:07;5.63;;;3.10;;
31004;SDS011;17676;52.254;4.490;2023-03-12T01:23:33;7.20;;;3.70;;
31004;SDS011;17676;52.254;4.490;2023-03-12T01:25:58;6.73;;;3.63;;
31004;SDS011;17676;52.254;4.490;2023-03-12T01:28:24;7.67;;;4.30;;
31004;SDS011;17676;52.254;4.490;2023-03-12T01:30:50;6.93;;;3.63;;
31004;SDS011;17676;52.254;4.490;2023-03-12T01:33:18;10.03;;;4.07;;
31004;SDS011;17676;52.254;4.490;2023-03-12T01:35:46;7.10;;;3.87;;
31004;SDS011;17676;52.254;4.490;2023-03-12T01:38:13;7.57;;;4.50;;
31004;SDS011;17676;52.254;4.490;2023-03-12T01:40:40;9.13;;;3.93;;
31004;SDS011;17676;52.254;4.490;2023-03-12T01:51:27;6.57;;;3.90;;
31004;SDS011;17676;52.254;4.490;2023-03-12T01:53:57;5.43;;;3.63;;
31004;SDS011;17676;52.254;4.490;2023-03-12T01:56:27;8.60;;;4.10;;
31004;SDS011;17676;52.254;4.490;2023-03-12T01:58:57;6.67;;;4.10;;
31004;SDS011;17676;52.254;4.490;2023-03-12T02:01:26;6.30;;;3.57;;
31004;SDS011;17676;52.254;4.490;2023-03-12T02:03:53;8.87;;;3.90;;
31004;SDS011;17676;52.254;4.490;2023-03-12T02:06:28;11.43;;;4.07;;
31004;SDS011;17676;52.254;4.490;2023-03-12T02:09:02;7.90;;;4.37;;
31004;SDS011;17676;52.254;4.490;2023-03-12T02:11:31;7.27;;;3.67;;
31004;SDS011;17676;52.254;4.490;2023-03-12T02:13:56;7.00;;;3.93;;
31004;SDS011;17676;52.254;4.490;2023-03-12T02:16:22;5.33;;;3.30;;
31004;SDS011;17676;52.254;4.490;2023-03-12T02:18:47;8.33;;;3.83;;
31004;SDS011;17676;52.254;4.490;2023-03-12T02:21:20;5.20;;;3.03;;
31004;SDS011;17676;52.254;4.490;2023-03-12T02:24:13;6.77;;;3.60;;
31004;SDS011;17676;52.254;4.490;2023-03-12T02:26:59;6.57;;;3.67;;
31004;SDS011;17676;52.254;4.490;2023-03-12T02:29:26;6.03;;;3.17;;
31004;SDS011;17676;52.254;4.490;2023-03-12T02:31:54;4.87;;;3.00;;
31004;SDS011;17676;52.254;4.490;2023-03-12T02:34:22;7.73;;;3.30;;
31004;SDS011;17676;52.254;4.490;2023-03-12T02:36:48;6.77;;;3.27;;
31004;SDS011;17676;52.254;4.490;2023-03-12T02:39:14;7.20;;;2.93;;
31004;SDS011;17676;52.254;4.490;2023-03-12T02:41:53;8.27;;;3.23;;
31004;SDS011;17676;52.254;4.490;2023-03-12T02:44:26;6.80;;;3.23;;
31004;SDS011;17676;52.254;4.490;2023-03-12T02:46:55;7.77;;;3.20;;
31004;SDS011;17676;52.254;4.490;2023-03-12T02:49:23;4.23;;;2.20;;
31004;SDS011;17676;52.254;4.490;2023-03-12T02:51:50;5.57;;;2.57;;
31004;SDS011;17676;52.254;4.490;2023-03-12T02:54:17;4.50;;;2.20;;
31004;SDS011;17676;52.254;4.490;2023-03-12T02:56:44;6.80;;;2.83;;
31004;SDS011;17676;52.254;4.490;2023-03-12T02:59:09;4.53;;;2.87;;
31004;SDS011;17676;52.254;4.490;2023-03-12T03:01:37;6.83;;;2.63;;
31004;SDS011;17676;52.254;4.490;2023-03-12T03:04:03;6.10;;;2.97;;
31004;SDS011;17676;52.254;4.490;2023-03-12T03:06:30;9.67;;;2.57;;
31004;SDS011;17676;52.254;4.490;2023-03-12T03:08:56;7.13;;;2.67;;
31004;SDS011;17676;52.254;4.490;2023-03-12T03:11:22;5.93;;;2.77;;
31004;SDS011;17676;52.254;4.490;2023-03-12T03:13:49;5.10;;;1.90;;
31004;SDS011;17676;52.254;4.490;2023-03-12T03:16:15;6.13;;;2.67;;
31004;SDS011;17676;52.254;4.490;2023-03-12T03:18:40;8.97;;;2.87;;
31004;SDS011;17676;52.254;4.490;2023-03-12T03:21:06;10.60;;;2.77;;
31004;SDS011;17676;52.254;4.490;2023-03-12T03:23:34;6.33;;;2.53;;
31004;SDS011;17676;52.254;4.490;2023-03-12T03:26:00;4.57;;;2.53;;
31004;SDS011;17676;52.254;4.490;2023-03-12T03:28:25;4.70;;;2.30;;
31004;SDS011;17676;52.254;4.490;2023-03-12T03:30:53;7.93;;;2.63;;
31004;SDS011;17676;52.254;4.490;2023-03-12T03:33:22;6.53;;;2.40;;
31004;SDS011;17676;52.254;4.490;2023-03-12T03:35:51;5.93;;;2.83;;
31004;SDS011;17676;52.254;4.490;2023-03-12T03:38:16;6.33;;;2.53;;
31004;SDS011;17676;52.254;4.490;2023-03-12T03:40:42;7.70;;;2.20;;
31004;SDS011;17676;52.254;4.490;2023-03-12T03:43:07;8.23;;;2.00;;
31004;SDS011;17676;52.254;4.490;2023-03-12T03:45:33;4.57;;;2.47;;
31004;SDS011;17676;52.254;4.490;2023-03-12T03:47:58;8.40;;;2.60;;
31004;SDS011;17676;52.254;4.490;2023-03-12T03:50:24;7.77;;;2.30;;
31004;SDS011;17676;52.254;4.490;2023-03-12T03:52:50;3.93;;;2.00;;
31004;SDS011;17676;52.254;4.490;2023-03-12T03:55:15;6.50;;;1.67;;
31004;SDS011;17676;52.254;4.490;2023-03-12T03:57:41;5.10;;;1.57;;
31004;SDS011;17676;52.254;4.490;2023-03-12T04:00:06;4.80;;;1.80;;
31004;SDS011;17676;52.254;4.490;2023-03-12T04:02:34;7.77;;;2.30;;
31004;SDS011;17676;52.254;4.490;2023-03-12T04:05:00;5.07;;;2.03;;
31004;SDS011;17676;52.254;4.490;2023-03-12T04:07:26;6.03;;;2.10;;
31004;SDS011;17676;52.254;4.490;2023-03-12T04:09:52;8.63;;;2.00;;
31004;SDS011;17676;52.254;4.490;2023-03-12T04:12:19;3.03;;;1.80;;
31004;SDS011;17676;52.254;4.490;2023-03-12T04:14:45;3.60;;;1.50;;
31004;SDS011;17676;52.254;4.490;2023-03-12T04:17:10;7.43;;;1.97;;
31004;SDS011;17676;52.254;4.490;2023-03-12T04:19:36;5.00;;;1.67;;
31004;SDS011;17676;52.254;4.490;2023-03-12T04:22:02;7.53;;;2.60;;
31004;SDS011;17676;52.254;4.490;2023-03-12T04:24:28;1.73;;;1.07;;
31004;SDS011;17676;52.254;4.490;2023-03-12T04:26:53;5.93;;;2.40;;
31004;SDS011;17676;52.254;4.490;2023-03-12T04:29:19;6.20;;;1.90;;
31004;SDS011;17676;52.254;4.490;2023-03-12T04:31:44;3.13;;;2.07;;
31004;SDS011;17676;52.254;4.490;2023-03-12T04:34:11;7.27;;;1.97;;
31004;SDS011;17676;52.254;4.490;2023-03-12T04:36:37;7.77;;;1.80;;
31004;SDS011;17676;52.254;4.490;2023-03-12T04:39:02;7.80;;;2.00;;
31004;SDS011;17676;52.254;4.490;2023-03-12T04:41:31;5.37;;;2.37;;
31004;SDS011;17676;52.254;4.490;2023-03-12T04:43:57;6.67;;;1.80;;
31004;SDS011;17676;52.254;4.490;2023-03-12T04:46:23;4.43;;;1.80;;
31004;SDS011;17676;52.254;4.490;2023-03-12T04:48:49;4.83;;;1.73;;
31004;SDS011;17676;52.254;4.490;2023-03-12T04:51:14;5.43;;;2.03;;
31004;SDS011;17676;52.254;4.490;2023-03-12T04:53:40;5.50;;;1.40;;
31004;SDS011;17676;52.254;4.490;2023-03-12T04:56:05;10.03;;;3.00;;
31004;SDS011;17676;52.254;4.490;2023-03-12T04:58:31;5.03;;;1.57;;
31004;SDS011;17676;52.254;4.490;2023-03-12T05:00:56;4.27;;;2.00;;
31004;SDS011;17676;52.254;4.490;2023-03-12T05:03:21;7.00;;;2.97;;
31004;SDS011;17676;52.254;4.490;2023-03-12T05:05:47;5.80;;;3.40;;
31004;SDS011;17676;52.254;4.490;2023-03-12T05:08:12;6.17;;;1.60;;
31004;SDS011;17676;52.254;4.490;2023-03-12T05:10:38;2.10;;;1.87;;
31004;SDS011;17676;52.254;4.490;2023-03-12T05:13:03;3.20;;;1.43;;
31004;SDS011;17676;52.254;4.490;2023-03-12T05:15:36;8.33;;;3.70;;
31004;SDS011;17676;52.254;4.490;2023-03-12T05:18:01;8.93;;;3.50;;
31004;SDS011;17676;52.254;4.490;2023-03-12T05:20:27;5.43;;;3.70;;
31004;SDS011;17676;52.254;4.490;2023-03-12T05:22:52;7.83;;;4.60;;
31004;SDS011;17676;52.254;4.490;2023-03-12T05:25:17;4.47;;;2.23;;
31004;SDS011;17676;52.254;4.490;2023-03-12T05:27:43;5.43;;;4.07;;
31004;SDS011;17676;52.254;4.490;2023-03-12T05:30:09;8.50;;;4.20;;
31004;SDS011;17676;52.254;4.490;2023-03-12T05:32:35;8.97;;;5.77;;
31004;SDS011;17676;52.254;4.490;2023-03-12T05:35:00;13.53;;;6.17;;
31004;SDS011;17676;52.254;4.490;2023-03-12T05:37:25;7.67;;;5.50;;
31004;SDS011;17676;52.254;4.490;2023-03-12T05:39:52;6.80;;;4.90;;
31004;SDS011;17676;52.254;4.490;2023-03-12T05:42:19;12.43;;;7.57;;
31004;SDS011;17676;52.254;4.490;2023-03-12T05:44:44;3.90;;;3.17;;
31004;SDS011;17676;52.254;4.490;2023-03-12T05:47:11;7.63;;;5.03;;
31004;SDS011;17676;52.254;4.490;2023-03-12T05:49:37;9.27;;;4.90;;
31004;SDS011;17676;52.254;4.490;2023-03-12T05:52:02;17.00;;;6.97;;
31004;SDS011;17676;52.254;4.490;2023-03-12T05:54:28;15.63;;;10.50;;
31004;SDS011;17676;52.254;4.490;2023-03-12T05:56:53;17.53;;;10.27;;
31004;SDS011;17676;52.254;4.490;2023-03-12T05:59:20;17.40;;;11.13;;
31004;SDS011;17676;52.254;4.490;2023-03-12T06:01:46;15.10;;;11.30;;
31004;SDS011;17676;52.254;4.490;2023-03-12T06:04:12;17.80;;;10.77;;
31004;SDS011;17676;52.254;4.490;2023-03-12T06:06:37;13.17;;;10.43;;
31004;SDS011;17676;52.254;4.490;2023-03-12T06:09:03;16.17;;;10.10;;
31004;SDS011;17676;52.254;4.490;2023-03-12T06:11:29;15.90;;;9.17;;
31004;SDS011;17676;52.254;4.490;2023-03-12T06:13:59;21.43;;;12.57;;
31004;SDS011;17676;52.254;4.490;2023-03-12T06:16:25;23.23;;;14.93;;
31004;SDS011;17676;52.254;4.490;2023-03-12T06:18:52;19.90;;;13.97;;
31004;SDS011;17676;52.254;4.490;2023-03-12T06:21:20;27.70;;;15.17;;
31004;SDS011;17676;52.254;4.490;2023-03-12T06:23:47;22.57;;;15.67;;
31004;SDS011;17676;52.254;4.490;2023-03-12T06:26:13;21.43;;;14.70;;
31004;SDS011;17676;52.254;4.490;2023-03-12T06:28:40;16.77;;;13.40;;
31004;SDS011;17676;52.254;4.490;2023-03-12T06:31:06;25.03;;;16.00;;
31004;SDS011;17676;52.254;4.490;2023-03-12T06:33:32;23.13;;;16.07;;
31004;SDS011;17676;52.254;4.490;2023-03-12T06:35:58;19.80;;;12.97;;
31004;SDS011;17676;52.254;4.490;2023-03-12T06:38:26;23.03;;;17.00;;
31004;SDS011;17676;52.254;4.490;2023-03-12T06:40:53;27.50;;;18.10;;
31004;SDS011;17676;52.254;4.490;2023-03-12T06:43:20;26.53;;;17.73;;
31004;SDS011;17676;52.254;4.490;2023-03-12T06:45:46;21.87;;;16.73;;
31004;SDS011;17676;52.254;4.490;2023-03-12T06:48:11;25.67;;;19.50;;
31004;SDS011;17676;52.254;4.490;2023-03-12T06:50:36;22.80;;;17.70;;
31004;SDS011;17676;52.254;4.490;2023-03-12T06:53:02;28.30;;;20.10;;
31004;SDS011;17676;52.254;4.490;2023-03-12T06:55:27;23.43;;;16.33;;
31004;SDS011;17676;52.254;4.490;2023-03-12T06:57:53;26.10;;;19.63;;
31004;SDS011;17676;52.254;4.490;2023-03-12T07:00:19;26.57;;;19.93;;
31004;SDS011;17676;52.254;4.490;2023-03-12T07:02:45;24.10;;;18.83;;
31004;SDS011;17676;52.254;4.490;2023-03-12T07:05:10;27.70;;;20.50;;
31004;SDS011;17676;52.254;4.490;2023-03-12T07:07:36;28.13;;;22.67;;
31004;SDS011;17676;52.254;4.490;2023-03-12T07:10:03;28.00;;;21.40;;
31004;SDS011;17676;52.254;4.490;2023-03-12T07:12:30;27.97;;;22.50;;
31004;SDS011;17676;52.254;4.490;2023-03-12T07:14:59;31.73;;;24.47;;
31004;SDS011;17676;52.254;4.490;2023-03-12T07:17:24;28.83;;;23.13;;
31004;SDS011;17676;52.254;4.490;2023-03-12T07:19:50;29.57;;;22.43;;
31004;SDS011;17676;52.254;4.490;2023-03-12T07:22:16;36.23;;;25.13;;
31004;SDS011;17676;52.254;4.490;2023-03-12T07:24:41;32.47;;;26.90;;
31004;SDS011;17676;52.254;4.490;2023-03-12T07:27:07;35.27;;;27.40;;
31004;SDS011;17676;52.254;4.490;2023-03-12T07:29:33;36.60;;;28.43;;
31004;SDS011;17676;52.254;4.490;2023-03-12T07:32:05;36.50;;;28.97;;
31004;SDS011;17676;52.254;4.490;2023-03-12T07:34:31;32.60;;;26.70;;
31004;SDS011;17676;52.254;4.490;2023-03-12T07:36:56;37.67;;;28.73;;
31004;SDS011;17676;52.254;4.490;2023-03-12T07:39:22;38.37;;;30.33;;
31004;SDS011;17676;52.254;4.490;2023-03-12T07:41:47;41.70;;;29.53;;
31004;SDS011;17676;52.254;4.490;2023-03-12T07:44:14;34.83;;;26.10;;
31004;SDS011;17676;52.254;4.490;2023-03-12T07:46:39;38.83;;;30.87;;
31004;SDS011;17676;52.254;4.490;2023-03-12T07:49:04;39.53;;;30.73;;
31004;SDS011;17676;52.254;4.490;2023-03-12T07:51:30;41.13;;;28.17;;
31004;SDS011;17676;52.254;4.490;2023-03-12T07:53:55;44.23;;;32.20;;
31004;SDS011;17676;52.254;4.490;2023-03-12T07:56:21;41.37;;;29.53;;
31004;SDS011;17676;52.254;4.490;2023-03-12T07:58:46;45.70;;;32.70;;
31004;SDS011;17676;52.254;4.490;2023-03-12T08:01:12;43.00;;;32.23;;
31004;SDS011;17676;52.254;4.490;2023-03-12T08:03:37;38.07;;;28.00;;
31004;SDS011;17676;52.254;4.490;2023-03-12T08:06:03;44.37;;;32.27;;
31004;SDS011;17676;52.254;4.490;2023-03-12T08:08:29;41.10;;;31.17;;
31004;SDS011;17676;52.254;4.490;2023-03-12T08:10:56;41.67;;;30.30;;
31004;SDS011;17676;52.254;4.490;2023-03-12T08:13:23;46.50;;;30.10;;
31004;SDS011;17676;52.254;4.490;2023-03-12T08:15:49;45.80;;;32.60;;
31004;SDS011;17676;52.254;4.490;2023-03-12T08:18:16;43.40;;;31.00;;
31004;SDS011;17676;52.254;4.490;2023-03-12T08:20:42;42.58;;;29.75;;
31004;SDS011;17676;52.254;4.490;2023-03-12T08:23:08;44.97;;;28.88;;
31004;SDS011;17676;52.254;4.490;2023-03-12T08:25:34;51.70;;;28.80;;
31004;SDS011;17676;52.254;4.490;2023-03-12T08:28:01;49.67;;;26.02;;
31004;SDS011;17676;52.254;4.490;2023-03-12T08:30:28;51.80;;;28.98;;
31004;SDS011;17676;52.254;4.490;2023-03-12T08:32:54;53.10;;;27.17;;
31004;SDS011;17676;52.254;4.490;2023-03-12T08:35:20;56.90;;;27.77;;
31004;SDS011;17676;52.254;4.490;2023-03-12T08:37:46;43.03;;;22.83;;
31004;SDS011;17676;52.254;4.490;2023-03-12T08:40:11;46.50;;;19.77;;
31004;SDS011;17676;52.254;4.490;2023-03-12T08:42:40;46.13;;;20.40;;
31004;SDS011;17676;52.254;4.490;2023-03-12T08:45:07;47.88;;;18.23;;
31004;SDS011;17676;52.254;4.490;2023-03-12T08:47:34;36.88;;;16.38;;
31004;SDS011;17676;52.254;4.490;2023-03-12T08:50:00;48.63;;;16.83;;
31004;SDS011;17676;52.254;4.490;2023-03-12T08:52:25;44.22;;;15.85;;
31004;SDS011;17676;52.254;4.490;2023-03-12T08:54:51;41.70;;;15.15;;
31004;SDS011;17676;52.254;4.490;2023-03-12T08:57:17;44.28;;;13.48;;
31004;SDS011;17676;52.254;4.490;2023-03-12T08:59:43;37.17;;;12.15;;
31004;SDS011;17676;52.254;4.490;2023-03-12T09:02:10;41.25;;;11.05;;
31004;SDS011;17676;52.254;4.490;2023-03-12T09:04:36;29.13;;;8.48;;
31004;SDS011;17676;52.254;4.490;2023-03-12T09:07:01;38.65;;;8.90;;
31004;SDS011;17676;52.254;4.490;2023-03-12T09:09:27;30.60;;;7.07;;
31004;SDS011;17676;52.254;4.490;2023-03-12T09:11:53;30.60;;;6.30;;
31004;SDS011;17676;52.254;4.490;2023-03-12T09:14:18;30.20;;;6.88;;
31004;SDS011;17676;52.254;4.490;2023-03-12T09:16:44;27.77;;;6.30;;
31004;SDS011;17676;52.254;4.490;2023-03-12T09:19:09;26.63;;;5.75;;
31004;SDS011;17676;52.254;4.490;2023-03-12T09:21:35;24.70;;;6.15;;
31004;SDS011;17676;52.254;4.490;2023-03-12T09:24:01;33.38;;;5.43;;
31004;SDS011;17676;52.254;4.490;2023-03-12T09:26:26;41.83;;;5.80;;
31004;SDS011;17676;52.254;4.490;2023-03-12T09:28:52;24.90;;;4.43;;
31004;SDS011;17676;52.254;4.490;2023-03-12T09:31:17;32.80;;;4.88;;
31004;SDS011;17676;52.254;4.490;2023-03-12T09:33:43;30.80;;;5.82;;
31004;SDS011;17676;52.254;4.490;2023-03-12T09:36:08;34.70;;;4.85;;
31004;SDS011;17676;52.254;4.490;2023-03-12T09:38:34;29.35;;;4.85;;
31004;SDS011;17676;52.254;4.490;2023-03-12T09:41:03;32.65;;;4.05;;
31004;SDS011;17676;52.254;4.490;2023-03-12T09:43:34;33.53;;;4.38;;
31004;SDS011;17676;52.254;4.490;2023-03-12T09:46:10;25.23;;;2.88;;
31004;SDS011;17676;52.254;4.490;2023-03-12T09:48:39;21.45;;;3.33;;
31004;SDS011;17676;52.254;4.490;2023-03-12T09:53:48;25.42;;;3.78;;
31004;SDS011;17676;52.254;4.490;2023-03-12T09:56:18;28.52;;;3.58;;
31004;SDS011;17676;52.254;4.490;2023-03-12T09:58:45;20.35;;;3.28;;
31004;SDS011;17676;52.254;4.490;2023-03-12T10:04:00;24.13;;;3.10;;
31004;SDS011;17676;52.254;4.490;2023-03-12T10:06:48;30.38;;;3.70;;
31004;SDS011;17676;52.254;4.490;2023-03-12T10:12:02;33.10;;;3.95;;
31004;SDS011;17676;52.254;4.490;2023-03-12T10:14:34;27.88;;;4.53;;
31004;SDS011;17676;52.254;4.490;2023-03-12T10:20:32;32.13;;;4.53;;
31004;SDS011;17676;52.254;4.490;2023-03-12T10:23:16;23.25;;;3.25;;
31004;SDS011;17676;52.254;4.490;2023-03-12T10:25:59;28.83;;;4.20;;
31004;SDS011;17676;52.254;4.490;2023-03-12T10:28:42;27.70;;;3.78;;
31004;SDS011;17676;52.254;4.490;2023-03-12T10:31:24;31.98;;;4.53;;
31004;SDS011;17676;52.254;4.490;2023-03-12T10:33:57;40.13;;;5.25;;
31004;SDS011;17676;52.254;4.490;2023-03-12T10:36:43;29.48;;;5.00;;
31004;SDS011;17676;52.254;4.490;2023-03-12T10:39:14;39.40;;;5.18;;
31004;SDS011;17676;52.254;4.490;2023-03-12T10:41:44;26.65;;;3.50;;
31004;SDS011;17676;52.254;4.490;2023-03-12T10:44:15;31.95;;;4.68;;
31004;SDS011;17676;52.254;4.490;2023-03-12T10:46:51;27.45;;;4.07;;
31004;SDS011;17676;52.254;4.490;2023-03-12T10:49:25;33.05;;;4.00;;
31004;SDS011;17676;52.254;4.490;2023-03-12T10:52:00;25.10;;;4.47;;
31004;SDS011;17676;52.254;4.490;2023-03-12T10:54:43;40.17;;;5.38;;
31004;SDS011;17676;52.254;4.490;2023-03-12T10:57:11;32.10;;;5.13;;
31004;SDS011;17676;52.254;4.490;2023-03-12T10:59:41;31.75;;;5.40;;
31004;SDS011;17676;52.254;4.490;2023-03-12T11:04:59;37.25;;;5.63;;
31004;SDS011;17676;52.254;4.490;2023-03-12T11:07:28;32.85;;;5.93;;
31004;SDS011;17676;52.254;4.490;2023-03-12T11:12:32;44.53;;;5.97;;
31004;SDS011;17676;52.254;4.490;2023-03-12T11:17:46;30.77;;;5.28;;
31004;SDS011;17676;52.254;4.490;2023-03-12T11:20:45;39.40;;;5.60;;
31004;SDS011;17676;52.254;4.490;2023-03-12T11:23:16;32.13;;;5.15;;
31004;SDS011;17676;52.254;4.490;2023-03-12T11:25:53;30.67;;;4.82;;
31004;SDS011;17676;52.254;4.490;2023-03-12T11:28:30;30.83;;;4.70;;
31004;SDS011;17676;52.254;4.490;2023-03-12T11:31:01;37.08;;;5.30;;
31004;SDS011;17676;52.254;4.490;2023-03-12T11:33:27;33.40;;;4.93;;
31004;SDS011;17676;52.254;4.490;2023-03-12T11:42:03;32.25;;;5.03;;
31004;SDS011;17676;52.254;4.490;2023-03-12T11:44:46;34.67;;;4.82;;
31004;SDS011;17676;52.254;4.490;2023-03-12T11:47:34;33.92;;;5.07;;
31004;SDS011;17676;52.254;4.490;2023-03-12T11:52:56;42.78;;;6.35;;
31004;SDS011;17676;52.254;4.490;2023-03-12T12:09:48;28.70;;;4.38;;
31004;SDS011;17676;52.254;4.490;2023-03-12T12:18:19;34.70;;;5.50;;
31004;SDS011;17676;52.254;4.490;2023-03-12T12:26:59;35.50;;;5.28;;
31004;SDS011;17676;52.254;4.490;2023-03-12T12:32:22;37.05;;;5.75;;
31004;SDS011;17676;52.254;4.490;2023-03-12T12:38:23;36.33;;;6.40;;
31004;SDS011;17676;52.254;4.490;2023-03-12T12:40:55;37.45;;;6.07;;
31004;SDS011;17676;52.254;4.490;2023-03-12T12:44:10;39.25;;;6.40;;
31004;SDS011;17676;52.254;4.490;2023-03-12T12:46:23;38.17;;;5.20;;
31004;SDS011;17676;52.254;4.490;2023-03-12T12:49:05;35.88;;;5.43;;
31004;SDS011;17676;52.254;4.490;2023-03-12T12:51:40;41.25;;;5.85;;
31004;SDS011;17676;52.254;4.490;2023-03-12T12:54:23;43.08;;;5.75;;
31004;SDS011;17676;52.254;4.490;2023-03-12T13:02:10;41.47;;;5.53;;
31004;SDS011;17676;52.254;4.490;2023-03-12T13:04:58;34.78;;;4.82;;
31004;SDS011;17676;52.254;4.490;2023-03-12T13:10:03;36.70;;;6.28;;
31004;SDS011;17676;52.254;4.490;2023-03-12T13:13:09;31.92;;;5.40;;
31004;SDS011;17676;52.254;4.490;2023-03-12T13:15:42;38.47;;;5.53;;
31004;SDS011;17676;52.254;4.490;2023-03-12T13:23:05;40.13;;;6.05;;
31004;SDS011;17676;52.254;4.490;2023-03-12T13:28:35;34.60;;;4.90;;
31004;SDS011;17676;52.254;4.490;2023-03-12T13:37:10;35.45;;;5.50;;
31004;SDS011;17676;52.254;4.490;2023-03-12T13:39:59;34.65;;;6.00;;
31004;SDS011;17676;52.254;4.490;2023-03-12T13:42:35;37.92;;;5.10;;
31004;SDS011;17676;52.254;4.490;2023-03-12T13:45:19;42.50;;;6.47;;
31004;SDS011;17676;52.254;4.490;2023-03-12T13:47:46;42.58;;;5.47;;
31004;SDS011;17676;52.254;4.490;2023-03-12T13:50:23;36.80;;;4.82;;
31004;SDS011;17676;52.254;4.490;2023-03-12T13:52:59;35.97;;;5.65;;
31004;SDS011;17676;52.254;4.490;2023-03-12T13:55:31;39.90;;;5.53;;
31004;SDS011;17676;52.254;4.490;2023-03-12T13:58:12;32.88;;;4.60;;
31004;SDS011;17676;52.254;4.490;2023-03-12T14:03:47;38.40;;;5.45;;
31004;SDS011;17676;52.254;4.490;2023-03-12T14:06:20;39.30;;;5.45;;
31004;SDS011;17676;52.254;4.490;2023-03-12T14:17:25;35.67;;;5.30;;
31004;SDS011;17676;52.254;4.490;2023-03-12T14:22:48;43.90;;;4.68;;
31004;SDS011;17676;52.254;4.490;2023-03-12T14:28:21;30.92;;;3.97;;
31004;SDS011;17676;52.254;4.490;2023-03-12T14:33:35;31.40;;;4.10;;
31004;SDS011;17676;52.254;4.490;2023-03-12T14:36:20;35.90;;;5.35;;
31004;SDS011;17676;52.254;4.490;2023-03-12T14:39:07;40.53;;;4.72;;
31004;SDS011;17676;52.254;4.490;2023-03-12T14:41:55;29.60;;;3.83;;
31004;SDS011;17676;52.254;4.490;2023-03-12T14:44:29;54.97;;;6.03;;
31004;SDS011;17676;52.254;4.490;2023-03-12T14:47:00;43.50;;;6.57;;
31004;SDS011;17676;52.254;4.490;2023-03-12T14:49:45;44.33;;;6.63;;
31004;SDS011;17676;52.254;4.490;2023-03-12T14:52:33;38.03;;;5.47;;
31004;SDS011;17676;52.254;4.490;2023-03-12T14:55:06;33.97;;;4.90;;
31004;SDS011;17676;52.254;4.490;2023-03-12T14:57:37;34.97;;;5.18;;
31004;SDS011;17676;52.254;4.490;2023-03-12T15:00:05;49.22;;;6.88;;
31004;SDS011;17676;52.254;4.490;2023-03-12T15:02:39;41.28;;;7.53;;
31004;SDS011;17676;52.254;4.490;2023-03-12T15:05:17;38.33;;;5.55;;
31004;SDS011;17676;52.254;4.490;2023-03-12T15:07:45;43.25;;;6.25;;
31004;SDS011;17676;52.254;4.490;2023-03-12T15:10:29;45.17;;;6.22;;
31004;SDS011;17676;52.254;4.490;2023-03-12T15:12:56;48.13;;;5.90;;
31004;SDS011;17676;52.254;4.490;2023-03-12T15:18:01;35.08;;;5.47;;
31004;SDS011;17676;52.254;4.490;2023-03-12T15:20:31;40.80;;;5.93;;
31004;SDS011;17676;52.254;4.490;2023-03-12T15:22:56;34.05;;;5.25;;
31004;SDS011;17676;52.254;4.490;2023-03-12T15:25:27;45.42;;;6.00;;
31004;SDS011;17676;52.254;4.490;2023-03-12T15:30:39;38.72;;;5.32;;
31004;SDS011;17676;52.254;4.490;2023-03-12T15:33:06;42.92;;;6.20;;
31004;SDS011;17676;52.254;4.490;2023-03-12T15:35:56;44.35;;;5.82;;
31004;SDS011;17676;52.254;4.490;2023-03-12T15:38:24;36.30;;;5.30;;
31004;SDS011;17676;52.254;4.490;2023-03-12T15:40:50;49.20;;;6.68;;
31004;SDS011;17676;52.254;4.490;2023-03-12T15:43:21;47.28;;;6.82;;
31004;SDS011;17676;52.254;4.490;2023-03-12T15:45:55;50.92;;;7.70;;
31004;SDS011;17676;52.254;4.490;2023-03-12T15:48:34;44.28;;;6.50;;
31004;SDS011;17676;52.254;4.490;2023-03-12T15:51:10;44.80;;;6.78;;
31004;SDS011;17676;52.254;4.490;2023-03-12T15:53:57;46.75;;;6.47;;
31004;SDS011;17676;52.254;4.490;2023-03-12T15:56:24;43.50;;;6.38;;
31004;SDS011;17676;52.254;4.490;2023-03-12T15:58:59;44.17;;;5.70;;
31004;SDS011;17676;52.254;4.490;2023-03-12T16:01:27;40.22;;;6.40;;
31004;SDS011;17676;52.254;4.490;2023-03-12T16:03:53;53.63;;;6.47;;
31004;SDS011;17676;52.254;4.490;2023-03-12T16:06:20;42.53;;;6.25;;
31004;SDS011;17676;52.254;4.490;2023-03-12T16:09:05;50.30;;;6.90;;
31004;SDS011;17676;52.254;4.490;2023-03-12T16:11:34;51.15;;;6.88;;
31004;SDS011;17676;52.254;4.490;2023-03-12T16:14:05;56.25;;;7.10;;
31004;SDS011;17676;52.254;4.490;2023-03-12T16:16:37;49.45;;;6.88;;
31004;SDS011;17676;52.254;4.490;2023-03-12T16:19:08;47.33;;;7.43;;
31004;SDS011;17676;52.254;4.490;2023-03-12T16:21:46;53.80;;;6.88;;
31004;SDS011;17676;52.254;4.490;2023-03-12T16:24:12;54.95;;;7.20;;
31004;SDS011;17676;52.254;4.490;2023-03-12T16:26:50;50.53;;;6.75;;
31004;SDS011;17676;52.254;4.490;2023-03-12T16:29:17;61.22;;;6.88;;
31004;SDS011;17676;52.254;4.490;2023-03-12T16:31:48;66.53;;;8.88;;
31004;SDS011;17676;52.254;4.490;2023-03-12T16:34:16;58.35;;;7.55;;
31004;SDS011;17676;52.254;4.490;2023-03-12T16:36:42;59.58;;;8.68;;
31004;SDS011;17676;52.254;4.490;2023-03-12T16:39:08;58.13;;;8.40;;
31004;SDS011;17676;52.254;4.490;2023-03-12T16:41:37;68.72;;;9.00;;
31004;SDS011;17676;52.254;4.490;2023-03-12T16:44:04;58.17;;;7.72;;